Time,TemperatureF,DewpointF,PressureIn,WindDirection,WindDirectionDegrees,WindSpeedMPH,WindSpeedGustMPH,Humidity,HourlyPrecipIn,Conditions,Clouds,dailyrainin,SolarRadiationWatts/m^2,SoftwareType,DateUTC
2013-06-26 00:12:00,53.9,47.0,31.35,North,10,2.0,4.0,78,0.00,,,0.00,0,weatherlink.com 1.10,2013-06-26 06:12:00,
2013-06-26 00:27:00,54.1,48.0,31.35,NNE,17,2.0,6.0,79,0.00,,,0.00,0,weatherlink.com 1.10,2013-06-26 06:27:00,
2013-06-26 00:42:00,54.2,47.0,31.34,NE,39,2.0,4.0,78,0.00,,,0.00,0,weatherlink.com 1.10,2013-06-26 06:42:00,
2013-06-26 00:57:00,54.2,47.0,31.35,NNE,13,0.0,6.0,78,0.00,,,0.00,0,weatherlink.com 1.10,2013-06-26 06:57:00,
2013-06-26 01:12:00,53.8,47.0,31.36,NNE,13,1.0,4.0,79,0.00,,,0.00,0,weatherlink.com 1.10,2013-06-26 07:12:00,
2013-06-26 01:27:00,52.7,48.0,31.36,North,351,0.0,4.0,85,0.00,,,0.00,0,weatherlink.com 1.10,2013-06-26 07:27:00,
2013-06-26 01:42:00,52.6,47.0,31.36,NNE,14,2.0,5.0,82,0.00,,,0.00,0,weatherlink.com 1.10,2013-06-26 07:42:00,
2013-06-26 01:57:00,53.2,48.0,31.36,North,11,3.0,6.0,81,0.00,,,0.00,0,weatherlink.com 1.10,2013-06-26 07:57:00,
2013-06-26 02:12:00,52.5,48.0,31.37,NNE,13,5.0,7.0,84,0.00,,,0.00,0,weatherlink.com 1.10,2013-06-26 08:12:00,
2013-06-26 02:27:00,52.5,48.0,31.36,North,360,4.0,8.0,83,0.00,,,0.00,0,weatherlink.com 1.10,2013-06-26 08:27:00,
2013-06-26 02:42:00,51.8,48.0,31.36,NE,45,3.0,7.0,85,0.00,,,0.00,0,weatherlink.com 1.10,2013-06-26 08:42:00,
2013-06-26 02:57:00,53.0,47.0,31.37,East,88,2.0,13.0,81,0.00,,,0.00,0,weatherlink.com 1.10,2013-06-26 08:57:00,
2013-06-26 03:12:00,53.2,48.0,31.38,North,355,0.0,5.0,81,0.00,,,0.00,0,weatherlink.com 1.10,2013-06-26 09:12:00,
2013-06-26 03:27:00,51.8,49.0,31.39,NW,307,0.0,4.0,90,0.00,,,0.00,0,weatherlink.com 1.10,2013-06-26 09:27:00,
2013-06-26 03:42:00,51.2,49.0,31.39,NW,307,0.0,3.0,91,0.00,,,0.00,0,weatherlink.com 1.10,2013-06-26 09:42:00,
2013-06-26 03:57:00,51.0,49.0,31.39,NW,307,0.0,0.0,92,0.00,,,0.00,0,weatherlink.com 1.10,2013-06-26 09:57:00,
2013-06-26 04:12:00,50.7,49.0,31.39,NW,307,0.0,2.0,92,0.00,,,0.00,0,weatherlink.com 1.10,2013-06-26 10:12:00,
2013-06-26 04:28:00,50.9,48.0,31.39,NW,307,0.0,4.0,90,0.00,,,0.00,0,weatherlink.com 1.10,2013-06-26 10:28:00,
2013-06-26 04:43:00,50.9,48.0,31.39,NW,307,0.0,3.0,90,0.00,,,0.00,0,weatherlink.com 1.10,2013-06-26 10:43:00,
2013-06-26 04:58:00,50.7,48.0,31.40,NW,307,0.0,2.0,90,0.00,,,0.00,0,weatherlink.com 1.10,2013-06-26 10:58:00,
2013-06-26 05:13:00,51.5,48.0,31.40,NW,308,4.0,4.0,89,0.00,,,0.00,0,weatherlink.com 1.10,2013-06-26 11:13:00,
2013-06-26 05:28:00,51.0,48.0,31.41,ENE,69,0.0,4.0,88,0.00,,,0.00,0,weatherlink.com 1.10,2013-06-26 11:28:00,
2013-06-26 05:43:00,52.1,49.0,31.41,SSW,205,1.0,5.0,88,0.00,,,0.00,7,weatherlink.com 1.10,2013-06-26 11:43:00,
2013-06-26 05:58:00,50.8,48.0,31.42,SSE,150,2.0,3.0,91,0.00,,,0.00,5,weatherlink.com 1.10,2013-06-26 11:58:00,
2013-06-26 06:13:00,51.1,49.0,31.43,SSW,205,4.0,6.0,91,0.00,,,0.00,11,weatherlink.com 1.10,2013-06-26 12:13:00,
2013-06-26 06:28:00,50.9,48.0,31.43,SSE,163,3.0,5.0,91,0.00,,,0.00,12,weatherlink.com 1.10,2013-06-26 12:28:00,
2013-06-26 06:43:00,51.2,49.0,31.44,SSE,159,0.0,6.0,91,0.00,,,0.00,32,weatherlink.com 1.10,2013-06-26 12:43:00,
2013-06-26 06:58:00,51.4,49.0,31.45,South,186,0.0,4.0,92,0.00,,,0.00,19,weatherlink.com 1.10,2013-06-26 12:58:00,
2013-06-26 07:13:00,51.0,49.0,31.45,South,186,2.0,4.0,92,0.00,,,0.00,39,weatherlink.com 1.10,2013-06-26 13:13:00,
2013-06-26 07:28:00,50.7,49.0,31.45,South,186,1.0,3.0,93,0.00,,,0.00,54,weatherlink.com 1.10,2013-06-26 13:28:00,
2013-06-26 07:43:00,50.9,49.0,31.45,South,186,0.0,3.0,93,0.00,,,0.00,70,weatherlink.com 1.10,2013-06-26 13:43:00,
2013-06-26 07:58:00,50.9,49.0,31.45,South,186,0.0,2.0,93,0.00,,,0.00,44,weatherlink.com 1.10,2013-06-26 13:58:00,
2013-06-26 08:13:00,50.7,49.0,31.46,South,186,0.0,0.0,93,0.00,,,0.00,70,weatherlink.com 1.10,2013-06-26 14:13:00,
2013-06-26 08:28:00,51.1,49.0,31.46,South,186,1.0,2.0,93,0.00,,,0.00,125,weatherlink.com 1.10,2013-06-26 14:28:00,
2013-06-26 08:43:00,51.8,50.0,31.46,SW,219,0.0,3.0,93,0.00,,,0.00,113,weatherlink.com 1.10,2013-06-26 14:43:00,
2013-06-26 08:58:00,52.0,50.0,31.47,SW,219,1.0,2.0,92,0.00,,,0.00,74,weatherlink.com 1.10,2013-06-26 14:58:00,
2013-06-26 09:13:00,52.6,50.0,31.47,SW,219,0.0,4.0,92,0.00,,,0.00,199,weatherlink.com 1.10,2013-06-26 15:13:00,
2013-06-26 09:28:00,53.3,51.0,31.47,SW,219,0.0,3.0,92,0.00,,,0.00,225,weatherlink.com 1.10,2013-06-26 15:28:00,
2013-06-26 09:43:00,54.3,52.0,31.47,SW,222,0.0,3.0,90,0.00,,,0.00,338,weatherlink.com 1.10,2013-06-26 15:43:00,
2013-06-26 09:58:00,55.4,52.0,31.48,SW,219,4.0,6.0,89,0.00,,,0.00,367,weatherlink.com 1.10,2013-06-26 15:58:00,
2013-06-26 10:13:00,55.5,52.0,31.48,SW,215,0.0,4.0,88,0.00,,,0.00,290,weatherlink.com 1.10,2013-06-26 16:13:00,
2013-06-26 10:28:00,56.2,52.0,31.48,SSW,200,6.0,6.0,87,0.00,,,0.00,272,weatherlink.com 1.10,2013-06-26 16:28:00,
2013-06-26 10:43:00,55.9,52.0,31.48,WSW,240,2.0,6.0,88,0.00,,,0.00,260,weatherlink.com 1.10,2013-06-26 16:43:00,
2013-06-26 10:58:00,56.7,52.0,31.48,SSW,207,7.0,9.0,84,0.00,,,0.00,373,weatherlink.com 1.10,2013-06-26 16:58:00,
2013-06-26 11:13:00,57.9,52.0,31.48,South,190,5.0,11.0,81,0.00,,,0.00,682,weatherlink.com 1.10,2013-06-26 17:13:00,
2013-06-26 11:29:00,59.0,53.0,31.48,SW,219,6.0,10.0,79,0.00,,,0.00,830,weatherlink.com 1.10,2013-06-26 17:29:00,
2013-06-26 11:44:00,59.0,52.0,31.49,SSW,198,6.0,14.0,78,0.01,,,0.01,454,weatherlink.com 1.10,2013-06-26 17:44:00,
2013-06-26 11:59:00,59.8,52.0,31.48,SW,219,4.0,12.0,76,0.01,,,0.01,578,weatherlink.com 1.10,2013-06-26 17:59:00,
2013-06-26 12:14:00,60.1,52.0,31.47,SSE,159,6.0,11.0,74,0.01,,,0.01,520,weatherlink.com 1.10,2013-06-26 18:14:00,
2013-06-26 12:29:00,61.3,51.0,31.47,SSW,192,7.0,10.0,69,0.01,,,0.01,594,weatherlink.com 1.10,2013-06-26 18:29:00,
2013-06-26 12:44:00,61.7,52.0,31.47,SW,232,4.0,9.0,71,0.00,,,0.01,798,weatherlink.com 1.10,2013-06-26 18:44:00,
2013-06-26 12:59:00,62.0,52.0,31.47,WSW,241,2.0,9.0,70,0.00,,,0.01,403,weatherlink.com 1.10,2013-06-26 18:59:00,
2013-06-26 13:14:00,62.7,52.0,31.46,SSW,196,0.0,6.0,68,0.00,,,0.01,673,weatherlink.com 1.10,2013-06-26 19:14:00,
2013-06-26 13:29:00,62.8,52.0,31.46,WSW,249,2.0,9.0,67,0.00,,,0.01,533,weatherlink.com 1.10,2013-06-26 19:29:00,
2013-06-26 13:44:00,63.0,52.0,31.46,SW,219,3.0,9.0,68,0.00,,,0.01,420,weatherlink.com 1.10,2013-06-26 19:44:00,
2013-06-26 13:59:00,63.0,51.0,31.47,SSE,165,7.0,8.0,65,0.00,,,0.01,334,weatherlink.com 1.10,2013-06-26 19:59:00,
2013-06-26 14:14:00,62.8,51.0,31.48,South,184,10.0,12.0,66,0.00,,,0.01,359,weatherlink.com 1.10,2013-06-26 20:14:00,
2013-06-26 14:29:00,62.6,49.0,31.47,SE,146,12.0,15.0,62,0.00,,,0.01,413,weatherlink.com 1.10,2013-06-26 20:29:00,
2013-06-26 14:44:00,62.0,49.0,31.47,SSE,154,13.0,15.0,62,0.00,,,0.01,311,weatherlink.com 1.10,2013-06-26 20:44:00,
2013-06-26 14:59:00,61.8,48.0,31.48,SSE,154,10.0,14.0,60,0.00,,,0.01,316,weatherlink.com 1.10,2013-06-26 20:59:00,
2013-06-26 15:14:00,62.2,47.0,31.48,South,178,8.0,11.0,57,0.00,,,0.01,290,weatherlink.com 1.10,2013-06-26 21:14:00,
2013-06-26 15:29:00,62.4,49.0,31.48,South,180,7.0,10.0,61,0.00,,,0.01,255,weatherlink.com 1.10,2013-06-26 21:29:00,
2013-06-26 15:44:00,63.0,48.0,31.49,SW,214,6.0,10.0,59,0.00,,,0.01,311,weatherlink.com 1.10,2013-06-26 21:44:00,
2013-06-26 15:59:00,61.7,53.0,31.50,North,355,7.0,15.0,72,0.00,,,0.01,267,weatherlink.com 1.10,2013-06-26 21:59:00,
2013-06-26 16:14:00,59.8,53.0,31.50,North,5,4.0,13.0,78,0.00,,,0.01,218,weatherlink.com 1.10,2013-06-26 22:14:00,
2013-06-26 16:29:00,59.6,52.0,31.49,NNE,12,3.0,6.0,77,0.00,,,0.01,123,weatherlink.com 1.10,2013-06-26 22:29:00,
2013-06-26 16:44:00,58.4,52.0,31.49,NE,34,1.0,6.0,80,0.00,,,0.01,146,weatherlink.com 1.10,2013-06-26 22:44:00,
2013-06-26 16:59:00,58.6,51.0,31.49,NE,38,0.0,4.0,77,0.00,,,0.01,223,weatherlink.com 1.10,2013-06-26 22:59:00,
2013-06-26 17:14:00,60.2,50.0,31.49,ENE,59,3.0,4.0,69,0.00,,,0.01,151,weatherlink.com 1.10,2013-06-26 23:14:00,
2013-06-26 17:29:00,60.5,49.0,31.49,NE,48,2.0,4.0,65,0.00,,,0.01,111,weatherlink.com 1.10,2013-06-26 23:29:00,
2013-06-26 17:44:00,60.6,49.0,31.50,NNE,24,0.0,3.0,65,0.00,,,0.01,90,weatherlink.com 1.10,2013-06-26 23:44:00,
2013-06-26 17:59:00,60.7,48.0,31.50,NNE,24,0.0,1.0,64,0.00,,,0.01,74,weatherlink.com 1.10,2013-06-26 23:59:00,
2013-06-26 18:14:00,60.5,49.0,31.51,NNE,24,0.0,3.0,66,0.00,,,0.01,91,weatherlink.com 1.10,2013-06-27 00:14:00,
2013-06-26 18:29:00,60.3,50.0,31.51,NNE,26,0.0,4.0,69,0.00,,,0.01,77,weatherlink.com 1.10,2013-06-27 00:29:00,
2013-06-26 18:44:00,59.8,49.0,31.51,NNE,20,0.0,4.0,67,0.00,,,0.01,47,weatherlink.com 1.10,2013-06-27 00:44:00,
2013-06-26 18:59:00,59.8,49.0,31.51,NNE,21,1.0,4.0,68,0.00,,,0.01,109,weatherlink.com 1.10,2013-06-27 00:59:00,
2013-06-26 19:14:00,60.2,50.0,31.51,NNW,347,4.0,5.0,70,0.00,,,0.01,98,weatherlink.com 1.10,2013-06-27 01:14:00,
2013-06-26 19:29:00,59.1,52.0,31.52,NW,322,11.0,18.0,76,0.01,,,0.02,109,weatherlink.com 1.10,2013-06-27 01:29:00,
2013-06-26 19:44:00,56.5,51.0,31.53,North,355,6.0,13.0,82,0.01,,,0.02,37,weatherlink.com 1.10,2013-06-27 01:44:00,
2013-06-26 19:59:00,55.6,50.0,31.55,NNW,341,6.0,13.0,82,0.01,,,0.02,14,weatherlink.com 1.10,2013-06-27 01:59:00,
2013-06-26 20:14:00,54.5,49.0,31.55,North,355,3.0,5.0,82,0.01,,,0.02,11,weatherlink.com 1.10,2013-06-27 02:14:00,
2013-06-26 20:29:00,53.4,48.0,31.55,NNE,15,3.0,8.0,83,0.00,,,0.02,11,weatherlink.com 1.10,2013-06-27 02:29:00,
2013-06-26 20:44:00,53.5,48.0,31.55,NNE,30,3.0,9.0,81,0.00,,,0.02,14,weatherlink.com 1.10,2013-06-27 02:44:00,
2013-06-26 20:59:00,54.1,47.0,31.54,NNE,14,1.0,7.0,78,0.00,,,0.02,7,weatherlink.com 1.10,2013-06-27 02:59:00,
2013-06-26 21:14:00,54.8,48.0,31.55,North,355,3.0,7.0,77,0.00,,,0.02,0,weatherlink.com 1.10,2013-06-27 03:14:00,
2013-06-26 21:29:00,54.7,48.0,31.56,North,355,4.0,4.0,77,0.00,,,0.02,0,weatherlink.com 1.10,2013-06-27 03:29:00,
2013-06-26 21:44:00,54.2,47.0,31.56,NNE,15,3.0,4.0,78,0.00,,,0.02,0,weatherlink.com 1.10,2013-06-27 03:44:00,
2013-06-26 21:59:00,54.7,48.0,31.57,NNE,17,3.0,4.0,77,0.00,,,0.02,0,weatherlink.com 1.10,2013-06-27 03:59:00,
2013-06-26 22:14:00,55.3,48.0,31.58,NE,35,5.0,5.0,76,0.00,,,0.02,0,weatherlink.com 1.10,2013-06-27 04:14:00,
2013-06-26 22:29:00,56.6,47.0,31.59,North,5,4.0,8.0,70,0.00,,,0.02,0,weatherlink.com 1.10,2013-06-27 04:29:00,
2013-06-26 22:44:00,56.6,47.0,31.59,NNW,343,2.0,5.0,70,0.00,,,0.02,0,weatherlink.com 1.10,2013-06-27 04:44:00,
2013-06-26 22:59:00,54.7,49.0,31.59,NNW,336,4.0,7.0,80,0.00,,,0.02,0,weatherlink.com 1.10,2013-06-27 04:59:00,
2013-06-26 23:14:00,53.7,48.0,31.60,NNW,336,2.0,3.0,82,0.00,,,0.02,0,weatherlink.com 1.10,2013-06-27 05:14:00,
2013-06-26 23:29:00,53.5,49.0,31.60,NNW,329,3.0,4.0,83,0.00,,,0.02,0,weatherlink.com 1.10,2013-06-27 05:29:00,
2013-06-26 23:44:00,53.3,49.0,31.60,North,351,2.0,5.0,84,0.00,,,0.02,0,weatherlink.com 1.10,2013-06-27 05:44:00,
2013-06-26 23:59:00,53.1,49.0,31.60,NNW,340,0.0,3.0,85,0.00,,,0.02,0,weatherlink.com 1.10,2013-06-27 05:59:00,